Rehrersburg, Pennsylvania
Current Conditions -  °F | °C
As of 12:54 AM on Wednesday 22 Oct 2014 (Local Time) from KRDG Reporting Station
Broken Clouds Broken Clouds  
Wind Chill: 55°   Ceiling: 5500
Heat Index: 55°   Visibility: 10mi
Dew Point: 49°   Wind: 3mph
Humidity: 80%   Direction: 30°NNE
Pressure: 29.89"   Gusts: NA
Location:  40.46°N, 76.24°W
Report Text: KRDG 220454Z 03003KT 10SM BKN055 13/09 A2989 RMK AO2 SLP125 T01280094 401890106
Loading
Personal Weather Stations






























Interactive Weather Map
Tropical Storm Tracking
New forecast layout! Learn more

10-Day Weather Forecast

Advertisements
Track Severe Weather on mobile